Time;durP1;ratioP1;P1;durP2;ratioP2;P2;SDS_P1;SDS_P2;PMS_P1;PMS_P2;Temp;Humidity;BMP_temperature;BMP_pressure;BME280_temperature;BME280_humidity;BME280_pressure;Samples;Min_cycle;Max_cycle;Signal;HPM_P1;HPM_P2
2022/11/22 00:02:09;;;;;;;4.07;1.70;;;6.10;99.90;;;;;;4954527;29;20114;-70
2022/11/22 00:04:35;;;;;;;5.40;1.60;;;6.10;99.90;;;;;;4954841;29;20027;-70
2022/11/22 00:07:01;;;;;;;12.15;1.80;;;6.00;99.90;;;;;;4954448;29;20030;-70
2022/11/22 00:09:26;;;;;;;6.95;1.52;;;6.10;99.90;;;;;;4954280;28;20047;-71
2022/11/22 00:11:52;;;;;;;4.93;1.58;;;6.20;99.90;;;;;;4955161;29;20035;-70
2022/11/22 00:14:17;;;;;;;5.03;1.17;;;6.30;99.90;;;;;;4955953;29;20038;-70
2022/11/22 00:16:43;;;;;;;6.25;1.38;;;6.30;99.90;;;;;;4954138;29;20102;-70
2022/11/22 00:19:09;;;;;;;6.38;2.05;;;6.20;99.90;;;;;;4955219;28;20067;-70
2022/11/22 00:21:34;;;;;;;6.72;1.75;;;6.00;99.90;;;;;;4953867;29;20030;-70
2022/11/22 00:24:00;;;;;;;8.10;1.75;;;5.90;99.90;;;;;;4954770;29;20034;-70
2022/11/22 00:26:25;;;;;;;8.70;1.75;;;6.00;99.90;;;;;;4955639;29;20119;-70
2022/11/22 00:28:51;;;;;;;3.65;1.35;;;5.90;99.90;;;;;;4954309;29;20031;-70
2022/11/22 00:31:16;;;;;;;4.85;2.33;;;5.90;99.90;;;;;;4953970;28;20219;-70
2022/11/22 00:33:42;;;;;;;11.45;2.00;;;5.90;99.90;;;;;;4955645;29;20039;-70
2022/11/22 00:36:07;;;;;;;7.18;2.78;;;5.90;99.90;;;;;;4954780;29;20087;-70
2022/11/22 00:38:33;;;;;;;8.27;2.22;;;5.80;99.90;;;;;;4955321;29;20026;-70
2022/11/22 00:40:59;;;;;;;3.55;2.00;;;5.80;99.90;;;;;;4955331;28;20023;-70
2022/11/22 00:43:24;;;;;;;2.72;1.40;;;5.80;99.90;;;;;;4954257;29;20122;-70
2022/11/22 00:45:50;;;;;;;9.45;3.20;;;5.80;99.90;;;;;;4954371;28;20038;-70
2022/11/22 00:48:15;;;;;;;12.68;3.38;;;5.90;99.90;;;;;;4957913;29;20058;-70
2022/11/22 00:50:41;;;;;;;8.80;2.20;;;5.80;99.90;;;;;;4959066;28;20027;-70
2022/11/22 00:53:06;;;;;;;9.35;2.15;;;5.80;99.90;;;;;;4957670;29;20027;-70
2022/11/22 00:55:32;;;;;;;3.70;1.58;;;5.80;99.90;;;;;;4958582;29;20031;-70
2022/11/22 00:57:57;;;;;;;10.43;3.05;;;6.00;99.90;;;;;;4958893;29;20059;-70
2022/11/22 01:00:23;;;;;;;4.78;1.60;;;5.90;99.90;;;;;;4958505;28;20081;-71
2022/11/22 01:02:48;;;;;;;4.25;1.73;;;6.00;99.90;;;;;;4957795;29;20019;-70
2022/11/22 01:05:16;;;;;;;4.90;1.92;;;6.00;99.90;;;;;;4960091;29;20073;-71
2022/11/22 01:07:42;;;;;;;2.92;1.88;;;6.00;99.90;;;;;;4959211;29;20037;-70
2022/11/22 01:10:08;;;;;;;5.28;2.45;;;6.00;99.90;;;;;;4959716;28;20122;-70
2022/11/22 01:12:34;;;;;;;7.72;2.97;;;5.90;99.90;;;;;;4958157;29;20100;-70
2022/11/22 01:15:00;;;;;;;6.22;2.55;;;5.90;99.90;;;;;;4959276;29;20066;-70
2022/11/22 01:17:26;;;;;;;6.45;2.53;;;5.90;99.90;;;;;;4958948;29;20096;-70
2022/11/22 01:19:51;;;;;;;7.82;2.60;;;5.90;99.90;;;;;;4957531;28;20023;-70
2022/11/22 01:22:17;;;;;;;9.60;1.98;;;6.00;99.90;;;;;;4957088;29;20054;-70
2022/11/22 01:24:42;;;;;;;11.60;2.65;;;6.10;99.90;;;;;;4957601;29;20028;-70
2022/11/22 01:27:08;;;;;;;6.13;2.13;;;6.20;99.90;;;;;;4957463;29;20023;-71
2022/11/22 01:29:33;;;;;;;4.30;2.10;;;6.10;99.90;;;;;;4958728;28;20071;-70
2022/11/22 01:31:59;;;;;;;8.77;2.38;;;6.10;99.90;;;;;;4957198;29;20031;-70
2022/11/22 01:34:24;;;;;;;8.82;2.92;;;6.20;99.90;;;;;;4957127;29;20058;-71
2022/11/22 01:36:50;;;;;;;2.30;1.75;;;6.20;99.90;;;;;;4957102;29;20028;-70
2022/11/22 01:39:16;;;;;;;8.52;2.15;;;6.30;99.90;;;;;;4958404;28;20031;-70
2022/11/22 01:41:41;;;;;;;4.88;2.70;;;6.20;99.90;;;;;;4957374;29;20019;-70
2022/11/22 01:44:40;;;;;;;6.35;2.00;;;6.10;99.90;;;;;;4956983;29;20494;-71
2022/11/22 01:47:11;;;;;;;10.00;2.63;;;6.20;99.90;;;;;;4899252;29;20048;-71
2022/11/22 01:49:46;;;;;;;7.20;1.98;;;6.20;99.90;;;;;;4882991;29;20087;-70
2022/11/22 01:52:17;;;;;;;3.47;1.98;;;6.20;99.90;;;;;;4900196;29;20040;-70
2022/11/22 01:54:47;;;;;;;5.60;2.10;;;6.10;99.90;;;;;;4883286;29;20029;-70
2022/11/22 01:57:20;;;;;;;7.28;2.15;;;6.20;99.90;;;;;;4898950;29;20115;-70
2022/11/22 01:59:56;;;;;;;4.03;1.80;;;6.20;99.90;;;;;;4883517;29;20120;-70
2022/11/22 02:02:22;;;;;;;11.05;2.15;;;6.20;99.90;;;;;;4883103;29;20025;-70
2022/11/22 02:04:51;;;;;;;3.92;3.25;;;6.10;99.90;;;;;;4898736;29;20047;-70
2022/11/22 02:07:22;;;;;;;5.30;2.17;;;6.10;99.90;;;;;;4882724;29;20103;-70
2022/11/22 02:09:51;;;;;;;5.43;2.33;;;6.20;99.90;;;;;;4898272;29;20106;-70
2022/11/22 02:12:18;;;;;;;2.97;2.08;;;6.20;99.90;;;;;;4883049;29;20037;-70
2022/11/22 02:14:44;;;;;;;6.82;2.47;;;6.30;99.90;;;;;;4898436;29;20025;-70
2022/11/22 02:17:10;;;;;;;5.85;2.20;;;6.10;99.90;;;;;;4883254;29;20084;-70
2022/11/22 02:19:38;;;;;;;4.35;2.63;;;6.20;99.90;;;;;;4898738;29;20032;-70
2022/11/22 02:22:21;;;;;;;5.60;2.30;;;6.30;99.90;;;;;;4898919;29;20040;-71
2022/11/22 02:25:00;;;;;;;5.30;2.33;;;6.30;99.90;;;;;;4956598;29;20023;-71
2022/11/22 02:27:26;;;;;;;5.82;2.80;;;6.20;99.90;;;;;;4956106;29;20027;-70
2022/11/22 02:29:52;;;;;;;5.82;2.80;;;6.20;99.90;;;;;;4957277;28;20029;-71
2022/11/22 02:32:17;;;;;;;9.63;2.67;;;6.40;99.90;;;;;;4957107;29;20122;-70
2022/11/22 02:34:46;;;;;;;7.25;2.35;;;6.20;99.90;;;;;;4957082;29;20030;-70
2022/11/22 02:37:16;;;;;;;6.25;2.75;;;6.10;99.90;;;;;;4955694;29;20121;-70
2022/11/22 02:39:44;;;;;;;3.78;2.28;;;6.20;99.90;;;;;;4955536;28;20082;-70
2022/11/22 02:42:10;;;;;;;7.68;2.90;;;6.30;99.90;;;;;;4957150;29;20542;-70
2022/11/22 02:44:36;;;;;;;7.25;2.08;;;6.40;99.90;;;;;;4955494;29;20027;-70
2022/11/22 02:47:01;;;;;;;5.13;2.33;;;6.40;99.90;;;;;;4957014;29;20027;-70
2022/11/22 02:49:27;;;;;;;7.47;2.95;;;6.30;99.90;;;;;;4955486;28;20119;-70
2022/11/22 02:51:52;;;;;;;6.20;2.78;;;6.20;99.90;;;;;;4955427;29;20054;-70
2022/11/22 02:54:18;;;;;;;9.77;3.47;;;6.10;99.90;;;;;;4955426;29;20030;-70
2022/11/22 02:56:44;;;;;;;3.78;2.10;;;6.00;99.90;;;;;;4955248;29;20062;-70
2022/11/22 02:59:10;;;;;;;5.60;3.70;;;6.20;99.90;;;;;;4955891;28;20023;-70
2022/11/22 03:01:36;;;;;;;9.75;2.63;;;6.10;99.90;;;;;;4955237;29;20027;-71
2022/11/22 03:04:01;;;;;;;5.05;2.55;;;6.20;99.90;;;;;;4956639;29;20016;-70
2022/11/22 03:06:27;;;;;;;4.72;2.88;;;6.40;99.90;;;;;;4956339;29;20127;-70
2022/11/22 03:08:53;;;;;;;5.75;2.50;;;6.40;99.90;;;;;;4955356;28;21233;-70
2022/11/22 03:11:19;;;;;;;6.07;2.83;;;6.40;99.90;;;;;;4956646;28;20045;-70
2022/11/22 03:13:44;;;;;;;5.93;2.85;;;6.40;99.90;;;;;;4955032;29;20034;-70
2022/11/22 03:16:10;;;;;;;7.55;2.92;;;6.50;99.90;;;;;;4956340;29;20059;-70
2022/11/22 03:18:36;;;;;;;4.43;2.40;;;6.50;99.90;;;;;;4956108;29;20110;-70
2022/11/22 03:21:08;;;;;;;5.88;2.40;;;6.60;99.90;;;;;;4956225;28;20118;-70
2022/11/22 03:23:33;;;;;;;4.38;2.83;;;6.70;99.90;;;;;;4956324;29;20078;-70
2022/11/22 03:26:05;;;;;;;10.73;3.53;;;6.80;99.90;;;;;;4955376;29;20031;-70
2022/11/22 03:28:30;;;;;;;10.05;3.28;;;6.80;99.90;;;;;;4956029;29;20031;-71
2022/11/22 03:30:56;;;;;;;7.32;3.33;;;6.60;99.90;;;;;;4954990;28;20031;-71
2022/11/22 03:33:22;;;;;;;7.70;3.33;;;6.40;99.90;;;;;;4954602;29;20031;-71
2022/11/22 03:35:47;;;;;;;8.98;2.47;;;6.40;99.90;;;;;;4956191;29;20038;-71
2022/11/22 03:38:13;;;;;;;6.47;2.70;;;6.40;99.90;;;;;;4956074;29;20027;-70
2022/11/22 03:40:38;;;;;;;7.53;3.67;;;6.40;99.90;;;;;;4955332;28;20023;-70
2022/11/22 03:43:04;;;;;;;4.95;3.15;;;6.40;99.90;;;;;;4955755;29;20031;-70
2022/11/22 03:45:30;;;;;;;14.73;3.03;;;6.40;99.90;;;;;;4954433;29;20023;-70
2022/11/22 03:47:56;;;;;;;6.05;3.00;;;6.40;99.90;;;;;;4954557;29;20023;-70
2022/11/22 03:50:22;;;;;;;9.38;3.67;;;6.40;99.90;;;;;;4955535;28;20082;-70
2022/11/22 03:52:48;;;;;;;4.68;3.08;;;6.40;99.90;;;;;;4955781;29;20039;-70
2022/11/22 03:55:14;;;;;;;6.68;3.63;;;6.30;99.90;;;;;;4954419;29;20038;-70
2022/11/22 03:57:39;;;;;;;5.00;3.20;;;6.40;99.90;;;;;;4954170;29;20030;-70
2022/11/22 04:00:06;;;;;;;9.50;3.75;;;6.40;99.90;;;;;;4954348;28;20019;-70
2022/11/22 04:02:31;;;;;;;6.00;3.53;;;6.60;99.90;;;;;;4954861;28;20054;-70
2022/11/22 04:04:57;;;;;;;4.90;2.90;;;6.70;99.90;;;;;;4955281;29;20059;-70
2022/11/22 04:07:23;;;;;;;6.93;3.25;;;6.70;99.90;;;;;;4955796;29;20438;-70
2022/11/22 04:09:48;;;;;;;4.78;3.10;;;6.70;99.90;;;;;;4955234;28;20506;-70
2022/11/22 04:12:14;;;;;;;12.98;3.67;;;6.70;99.90;;;;;;4955176;29;20023;-70
2022/11/22 04:23:00;;;;;;;11.25;3.33;;;6.90;99.90;;;;;;4955460;29;20031;-70
2022/11/22 04:25:27;;;;;;;5.03;3.10;;;6.90;99.90;;;;;;4955240;29;20032;-70
2022/11/22 04:27:54;;;;;;;6.30;3.25;;;7.10;99.90;;;;;;4955070;29;20053;-70
2022/11/22 04:30:20;;;;;;;5.80;3.30;;;7.20;99.90;;;;;;4955144;28;20037;-70
2022/11/22 04:32:45;;;;;;;5.05;3.08;;;7.00;99.90;;;;;;4955522;29;20039;-70
2022/11/22 04:35:17;;;;;;;5.43;4.07;;;7.00;99.90;;;;;;4953800;29;20114;-70
2022/11/22 04:37:49;;;;;;;5.85;3.30;;;7.00;99.90;;;;;;4953992;29;20047;-70
2022/11/22 04:40:14;;;;;;;5.93;3.13;;;6.90;99.90;;;;;;4954983;28;20494;-70
2022/11/22 04:45:24;;;;;;;8.30;3.55;;;6.70;99.90;;;;;;4955255;29;20046;-70
2022/11/22 04:47:58;;;;;;;8.55;3.58;;;6.70;99.90;;;;;;4954988;29;20027;-70
2022/11/22 04:53:09;;;;;;;8.02;3.53;;;6.50;99.90;;;;;;4955413;29;20058;-70
2022/11/22 04:55:34;;;;;;;8.90;3.65;;;6.50;99.90;;;;;;4954281;29;20471;-70
2022/11/22 04:58:01;;;;;;;7.20;3.85;;;6.60;99.90;;;;;;4954680;29;20081;-70
2022/11/22 05:00:28;;;;;;;10.25;3.70;;;6.50;99.90;;;;;;4953401;28;20122;-70
2022/11/22 05:02:53;;;;;;;10.30;3.85;;;6.50;99.90;;;;;;4954742;29;20032;-70
2022/11/22 05:05:19;;;;;;;6.85;3.97;;;6.40;99.90;;;;;;4954763;29;20035;-70
2022/11/22 05:07:44;;;;;;;7.60;3.88;;;6.40;99.90;;;;;;4953457;29;20055;-70
2022/11/22 05:10:10;;;;;;;6.18;4.20;;;6.60;99.90;;;;;;4954522;28;20077;-70
2022/11/22 05:12:36;;;;;;;7.72;3.72;;;6.50;99.90;;;;;;4954653;29;20023;-70
2022/11/22 05:15:02;;;;;;;6.50;4.25;;;6.40;99.90;;;;;;4954541;29;20163;-70
2022/11/22 05:17:28;;;;;;;15.05;4.97;;;6.40;99.90;;;;;;4954639;29;20070;-70
2022/11/22 05:19:53;;;;;;;9.63;4.82;;;6.20;99.90;;;;;;4953448;28;20110;-70
2022/11/22 05:23:53;;;;;;;10.35;5.22;;;6.20;99.90;;;;;;4954532;29;20030;-70
2022/11/22 05:25:08;;;;;;;8.52;4.50;;;6.20;99.90;;;;;;4954307;29;20024;-70
2022/11/22 05:27:33;;;;;;;8.93;4.93;;;6.20;99.90;;;;;;4954462;29;20026;-70
2022/11/22 05:29:59;;;;;;;10.95;5.85;;;6.20;99.90;;;;;;4953186;28;20027;-70
2022/11/22 05:32:24;;;;;;;9.57;5.25;;;6.30;99.90;;;;;;4954445;28;20023;-70
2022/11/22 05:34:50;;;;;;;12.10;5.13;;;6.40;99.90;;;;;;4957996;29;20031;-70
2022/11/22 05:37:15;;;;;;;11.70;5.95;;;6.40;99.90;;;;;;4957900;29;20039;-70
2022/11/22 05:39:41;;;;;;;11.70;5.45;;;6.50;99.90;;;;;;4956459;28;20023;-70
2022/11/22 05:42:06;;;;;;;11.80;5.80;;;6.50;99.90;;;;;;4956591;29;20089;-70
2022/11/22 05:44:32;;;;;;;13.68;6.55;;;6.40;99.90;;;;;;4957949;29;20035;-70
2022/11/22 05:46:59;;;;;;;16.13;6.32;;;6.50;99.90;;;;;;4957569;29;20443;-70
2022/11/22 05:49:24;;;;;;;14.40;6.47;;;6.50;99.90;;;;;;4956349;28;20142;-70
2022/11/22 05:51:50;;;;;;;13.50;7.03;;;6.40;99.90;;;;;;4957900;29;20027;-70
2022/11/22 05:54:16;;;;;;;15.63;7.05;;;6.50;99.90;;;;;;4956298;29;20031;-70
2022/11/22 05:56:41;;;;;;;16.40;7.85;;;6.50;99.90;;;;;;4957533;29;20036;-70
2022/11/22 05:59:07;;;;;;;17.52;6.97;;;6.50;99.90;;;;;;4956417;28;20019;-70
2022/11/22 06:01:32;;;;;;;18.45;8.10;;;6.50;99.90;;;;;;4957115;29;20467;-70
2022/11/22 06:03:58;;;;;;;18.70;8.20;;;6.40;99.90;;;;;;4957802;29;20035;-70
2022/11/22 06:06:23;;;;;;;15.55;7.80;;;6.40;99.90;;;;;;4957431;29;20104;-70
2022/11/22 06:08:50;;;;;;;19.67;8.02;;;6.40;99.90;;;;;;4956448;29;20199;-70
2022/11/22 06:11:21;;;;;;;15.80;7.82;;;6.50;99.90;;;;;;4957529;28;20043;-70
2022/11/22 06:13:49;;;;;;;18.65;8.27;;;6.60;99.90;;;;;;4957314;29;20078;-70
2022/11/22 06:16:15;;;;;;;19.55;9.00;;;6.70;99.90;;;;;;4955945;29;20058;-70
2022/11/22 06:18:41;;;;;;;18.50;7.95;;;6.60;99.90;;;;;;4957245;29;20117;-70
2022/11/22 06:21:12;;;;;;;16.75;8.00;;;6.60;99.90;;;;;;4957105;28;20024;-70
2022/11/22 06:23:37;;;;;;;21.43;7.60;;;6.70;99.90;;;;;;4957230;29;20031;-70
2022/11/22 06:26:14;;;;;;;19.20;7.75;;;6.70;99.90;;;;;;4955590;29;20274;-70
2022/11/22 06:28:40;;;;;;;19.63;8.48;;;6.70;99.90;;;;;;4957069;28;20035;-70
2022/11/22 06:31:13;;;;;;;16.88;7.35;;;6.90;99.90;;;;;;4956819;28;20028;-70
2022/11/22 06:33:40;;;;;;;21.42;8.00;;;6.90;99.90;;;;;;4956979;28;20106;-70
2022/11/22 06:36:13;;;;;;;18.48;7.97;;;7.00;99.90;;;;;;4955607;29;20118;-70
2022/11/22 06:38:41;;;;;;;19.33;8.35;;;7.00;99.90;;;;;;4956869;28;20027;-70
2022/11/22 06:41:09;;;;;;;25.02;8.00;;;7.00;99.90;;;;;;4956683;28;20039;-70
2022/11/22 06:43:36;;;;;;;22.02;8.35;;;7.10;99.90;;;;;;4955877;28;20094;-70
2022/11/22 06:46:04;;;;;;;17.80;8.15;;;7.10;99.90;;;;;;4956955;28;20034;-70
2022/11/22 06:48:32;;;;;;;22.90;8.52;;;7.10;99.90;;;;;;4956595;28;20031;-70
2022/11/22 06:51:03;;;;;;;20.13;8.57;;;7.00;99.90;;;;;;4955167;28;20030;-70
2022/11/22 06:53:33;;;;;;;22.13;8.07;;;7.00;99.90;;;;;;4956615;28;20035;-70
2022/11/22 06:56:07;;;;;;;17.75;7.35;;;6.90;99.90;;;;;;4956356;28;20032;-70
2022/11/22 06:58:33;;;;;;;19.67;8.32;;;6.90;99.90;;;;;;4971435;28;20024;-71
2022/11/22 07:01:09;;;;;;;23.08;9.05;;;6.90;99.90;;;;;;4955067;28;20023;-70
2022/11/22 07:03:36;;;;;;;18.52;8.10;;;7.00;99.90;;;;;;4956443;28;20051;-70
2022/11/22 07:06:02;;;;;;;15.60;7.72;;;7.10;99.90;;;;;;4956573;28;20031;-70
2022/11/22 07:08:29;;;;;;;25.30;9.05;;;7.00;99.90;;;;;;4956324;28;20098;-70
2022/11/22 07:10:54;;;;;;;20.13;8.43;;;6.90;99.90;;;;;;4970844;28;20050;-70
2022/11/22 07:13:20;;;;;;;19.88;8.13;;;6.90;99.90;;;;;;4971012;28;20027;-70
2022/11/22 07:15:56;;;;;;;17.13;7.25;;;6.90;99.90;;;;;;4955110;29;20027;-70
2022/11/22 07:18:22;;;;;;;17.42;7.45;;;6.80;99.90;;;;;;4956063;28;20387;-70
2022/11/22 07:20:48;;;;;;;16.67;7.45;;;6.80;99.90;;;;;;4970810;28;20028;-70
2022/11/22 07:23:14;;;;;;;24.40;8.40;;;6.80;99.90;;;;;;4956186;28;20035;-70
2022/11/22 07:25:44;;;;;;;19.70;8.07;;;6.90;99.90;;;;;;4955948;28;20027;-70
2022/11/22 07:28:09;;;;;;;20.10;6.95;;;6.90;99.90;;;;;;4954690;29;20035;-70
2022/11/22 07:30:35;;;;;;;16.52;7.35;;;7.00;99.90;;;;;;4955771;28;20031;-70
2022/11/22 07:33:00;;;;;;;20.60;7.65;;;7.00;99.90;;;;;;4955862;28;20110;-70
2022/11/22 07:35:27;;;;;;;18.13;7.28;;;7.00;99.90;;;;;;4955755;28;20019;-70
2022/11/22 07:37:52;;;;;;;25.70;7.45;;;7.10;99.90;;;;;;4971700;28;20090;-70
2022/11/22 07:40:18;;;;;;;16.70;7.40;;;7.10;99.90;;;;;;4955630;28;20066;-70
2022/11/22 07:42:43;;;;;;;21.08;7.95;;;7.10;99.90;;;;;;4955271;29;20062;-70
2022/11/22 07:45:09;;;;;;;21.45;8.73;;;7.10;99.90;;;;;;4955613;28;20102;-70
2022/11/22 07:47:35;;;;;;;16.13;6.60;;;7.10;99.90;;;;;;4956146;28;20094;-70
2022/11/22 07:50:00;;;;;;;23.85;8.70;;;7.10;99.90;;;;;;4970491;28;20041;-70
2022/11/22 07:52:26;;;;;;;16.85;7.30;;;7.10;99.90;;;;;;4955530;28;20031;-70
2022/11/22 07:54:51;;;;;;;19.45;8.43;;;7.10;99.90;;;;;;4955360;28;20087;-70
2022/11/22 07:57:17;;;;;;;17.38;7.28;;;7.00;99.90;;;;;;4970215;28;20488;-71
2022/11/22 07:59:42;;;;;;;15.23;7.20;;;6.90;99.90;;;;;;4954079;28;20106;-70
2022/11/22 08:02:11;;;;;;;17.35;7.30;;;6.90;99.90;;;;;;4955676;28;20035;-71
2022/11/22 08:05:06;;;;;;;18.45;7.45;;;7.00;99.90;;;;;;4955106;28;20513;-71
2022/11/22 08:07:32;;;;;;;18.20;6.80;;;7.10;99.90;;;;;;4955664;29;20031;-71
2022/11/22 08:09:57;;;;;;;19.15;5.93;;;7.10;99.90;;;;;;4954117;29;20031;-70
2022/11/22 08:12:23;;;;;;;16.83;6.22;;;7.20;99.90;;;;;;4955277;29;20027;-70
2022/11/22 08:14:48;;;;;;;28.48;6.60;;;7.20;99.90;;;;;;4955213;29;20054;-70
2022/11/22 08:17:14;;;;;;;12.70;5.95;;;7.10;99.90;;;;;;4953903;29;20030;-71
2022/11/22 08:19:39;;;;;;;16.30;5.95;;;7.10;99.90;;;;;;4954191;29;20019;-71
2022/11/22 08:22:05;;;;;;;14.60;6.22;;;7.00;99.90;;;;;;4955191;29;20038;-70
2022/11/22 08:24:31;;;;;;;17.90;6.15;;;7.00;99.90;;;;;;4954111;29;20023;-70
2022/11/22 08:26:57;;;;;;;17.23;6.72;;;7.00;99.90;;;;;;4955091;29;20105;-70
2022/11/22 08:29:22;;;;;;;23.25;7.15;;;7.00;99.90;;;;;;4954404;29;20083;-70
2022/11/22 08:31:48;;;;;;;15.73;5.25;;;7.00;99.90;;;;;;4952998;29;20047;-70
2022/11/22 08:34:13;;;;;;;12.43;5.15;;;7.00;99.90;;;;;;4955019;29;20035;-70
2022/11/22 08:36:39;;;;;;;10.25;4.40;;;7.00;99.90;;;;;;4953679;29;20055;-70
2022/11/22 08:39:04;;;;;;;17.25;5.28;;;7.10;99.90;;;;;;4953687;29;20565;-70
2022/11/22 08:41:30;;;;;;;16.88;5.70;;;7.10;99.90;;;;;;4954014;29;20031;-70
2022/11/22 08:43:55;;;;;;;16.63;4.95;;;7.10;99.90;;;;;;4955500;29;20027;-70
2022/11/22 08:46:21;;;;;;;17.92;5.50;;;7.10;99.90;;;;;;4953701;29;20023;-70
2022/11/22 08:48:46;;;;;;;16.98;6.05;;;7.10;99.90;;;;;;4955010;29;20074;-70
2022/11/22 08:51:13;;;;;;;14.13;5.78;;;7.00;99.90;;;;;;4954862;29;20031;-70
2022/11/22 08:53:40;;;;;;;17.00;5.05;;;7.00;99.90;;;;;;4955060;29;20035;-70
2022/11/22 08:56:08;;;;;;;18.08;5.30;;;7.00;99.90;;;;;;4955085;29;20027;-70
2022/11/22 08:58:35;;;;;;;15.77;4.78;;;7.10;99.90;;;;;;4953598;29;20027;-70
2022/11/22 09:01:05;;;;;;;11.18;4.22;;;7.20;99.90;;;;;;4954537;28;20031;-70
2022/11/22 09:03:30;;;;;;;11.98;3.90;;;7.20;99.90;;;;;;4953489;29;20095;-70
2022/11/22 09:06:01;;;;;;;9.88;3.72;;;7.20;99.90;;;;;;4953460;28;20122;-70
2022/11/22 09:08:26;;;;;;;11.05;4.57;;;7.20;99.90;;;;;;4956488;29;20082;-70
2022/11/22 09:10:52;;;;;;;17.17;3.92;;;7.20;99.90;;;;;;5004832;23;20042;-69
2022/11/22 09:13:17;;;;;;;17.08;4.18;;;7.30;99.90;;;;;;4999236;28;20021;-69
2022/11/22 09:15:43;;;;;;;11.15;3.45;;;7.40;99.90;;;;;;5016910;28;20030;-69
2022/11/22 09:18:08;;;;;;;14.10;3.72;;;7.60;99.90;;;;;;5000090;28;20164;-69
2022/11/22 09:20:34;;;;;;;12.02;2.75;;;7.60;99.90;;;;;;5007835;28;20030;-69
2022/11/22 09:23:00;;;;;;;17.42;2.88;;;7.70;99.90;;;;;;4997413;28;20025;-69
2022/11/22 09:25:26;;;;;;;14.52;2.72;;;7.80;99.90;;;;;;4980388;28;20030;-69
2022/11/22 09:27:51;;;;;;;10.30;2.60;;;7.90;99.90;;;;;;4979561;28;20038;-69
2022/11/22 09:30:17;;;;;;;15.43;3.10;;;8.00;99.90;;;;;;4979687;28;20022;-69
2022/11/22 09:32:43;;;;;;;14.02;3.00;;;8.10;99.90;;;;;;4979475;28;20026;-69
2022/11/22 09:35:09;;;;;;;21.05;3.17;;;8.10;99.90;;;;;;4979368;28;20083;-69
2022/11/22 09:37:34;;;;;;;14.13;4.15;;;8.20;99.90;;;;;;4980603;28;20473;-69
2022/11/22 09:40:00;;;;;;;8.98;2.95;;;8.20;99.90;;;;;;4979652;28;20089;-68
2022/11/22 09:42:46;;;;;;;14.13;3.45;;;8.30;99.90;;;;;;4996718;28;20033;-69
2022/11/22 09:45:24;;;;;;;15.38;3.28;;;8.30;99.90;;;;;;4979378;28;20027;-70
2022/11/22 09:48:09;;;;;;;8.40;2.97;;;8.40;99.90;;;;;;4979728;28;20041;-70
2022/11/22 09:50:59;;;;;;;9.93;2.40;;;8.30;99.90;;;;;;4996847;28;20026;-69
2022/11/22 09:53:28;;;;;;;10.70;2.88;;;8.40;99.90;;;;;;4979494;28;20037;-69
2022/11/22 09:55:58;;;;;;;10.15;2.80;;;8.60;99.90;;;;;;4979445;28;20037;-69
2022/11/22 09:58:32;;;;;;;7.88;2.30;;;8.60;99.90;;;;;;4996766;28;20023;-69
2022/11/22 10:01:19;;;;;;;6.78;2.10;;;8.60;99.90;;;;;;4978925;28;20046;-69
2022/11/22 10:03:50;;;;;;;6.70;1.98;;;8.70;99.90;;;;;;4979060;28;20026;-69
2022/11/22 10:06:27;;;;;;;6.97;1.70;;;8.80;99.90;;;;;;4996687;28;20105;-69
2022/11/22 10:09:37;;;;;;;11.07;2.42;;;8.80;99.90;;;;;;4996400;28;20047;-69
2022/11/22 10:12:23;;;;;;;7.55;2.25;;;8.80;99.90;;;;;;4902176;29;20044;-69
2022/11/22 10:14:51;;;;;;;13.30;2.25;;;8.70;99.90;;;;;;4917515;29;20091;-69
2022/11/22 10:17:28;;;;;;;16.42;2.42;;;8.60;99.90;;;;;;4901499;29;20025;-69
2022/11/22 10:20:06;;;;;;;10.32;1.70;;;8.70;99.90;;;;;;4916960;29;20079;-69
2022/11/22 10:22:32;;;;;;;13.60;2.55;;;8.80;99.90;;;;;;4917352;29;20036;-69
2022/11/22 10:24:59;;;;;;;7.53;1.60;;;9.00;99.90;;;;;;4917056;29;20036;-69
2022/11/22 10:27:31;;;;;;;10.82;1.75;;;9.20;99.90;;;;;;4916956;29;20040;-69
2022/11/22 10:30:00;;;;;;;8.65;1.42;;;9.20;99.90;;;;;;4901211;29;20025;-69
2022/11/22 10:32:39;;;;;;;6.88;1.65;;;9.30;99.90;;;;;;4916844;29;20032;-69
2022/11/22 10:35:19;;;;;;;4.38;1.75;;;9.20;99.90;;;;;;4901204;29;20036;-69
2022/11/22 10:38:06;;;;;;;8.27;1.65;;;9.30;99.90;;;;;;4917099;29;20024;-69
2022/11/22 10:40:57;;;;;;;5.22;1.83;;;9.30;99.90;;;;;;4916751;29;20509;-69
2022/11/22 10:43:28;;;;;;;5.60;1.85;;;9.10;99.90;;;;;;4900857;29;20119;-69
2022/11/22 10:46:12;;;;;;;8.98;1.52;;;8.80;99.90;;;;;;4916720;29;20032;-69
2022/11/22 10:48:57;;;;;;;7.75;1.90;;;8.90;99.90;;;;;;4995674;28;20026;-69
2022/11/22 10:51:39;;;;;;;9.10;1.58;;;8.90;99.90;;;;;;4995737;28;20058;-69
2022/11/22 10:54:19;;;;;;;7.07;1.77;;;9.00;99.90;;;;;;4978051;28;20485;-69
2022/11/22 10:56:52;;;;;;;10.93;1.77;;;9.00;99.90;;;;;;4995671;28;20058;-69
2022/11/22 10:59:35;;;;;;;7.07;1.85;;;9.10;99.90;;;;;;4995445;28;20049;-69
2022/11/22 11:02:25;;;;;;;4.57;1.17;;;9.10;99.90;;;;;;4995543;28;20023;-69
2022/11/22 11:04:53;;;;;;;5.50;1.50;;;9.10;99.90;;;;;;4995483;28;20022;-69
2022/11/22 11:07:22;;;;;;;9.02;1.92;;;9.00;99.90;;;;;;4995227;28;20034;-69
2022/11/22 11:09:56;;;;;;;5.75;1.98;;;9.10;99.90;;;;;;4977426;28;20041;-69
2022/11/22 11:12:24;;;;;;;9.38;2.55;;;9.10;99.90;;;;;;4995048;28;20026;-69
2022/11/22 11:15:02;;;;;;;9.50;2.80;;;9.10;99.90;;;;;;4996008;28;20051;-69
2022/11/22 11:17:35;;;;;;;13.75;1.83;;;9.00;99.90;;;;;;4994993;28;20030;-69
2022/11/22 11:20:09;;;;;;;10.02;2.20;;;8.90;99.90;;;;;;4995415;28;20025;-69
2022/11/22 11:22:35;;;;;;;11.25;1.70;;;8.90;99.90;;;;;;4977615;28;20029;-69
2022/11/22 11:25:25;;;;;;;8.18;2.63;;;8.90;99.90;;;;;;4995017;28;20051;-69
2022/11/22 11:27:51;;;;;;;17.08;2.70;;;8.90;99.90;;;;;;4977946;28;20029;-69
2022/11/22 11:30:16;;;;;;;6.65;1.65;;;8.80;99.90;;;;;;4977076;28;20069;-68
2022/11/22 11:32:53;;;;;;;8.00;2.22;;;8.70;99.90;;;;;;4977452;28;20031;-69
2022/11/22 11:35:23;;;;;;;12.73;1.98;;;8.60;99.90;;;;;;4977659;28;20048;-69
2022/11/22 11:37:48;;;;;;;5.65;1.77;;;8.70;99.90;;;;;;4978171;28;20018;-69
2022/11/22 11:40:30;;;;;;;7.80;2.67;;;8.80;99.90;;;;;;4994731;28;20022;-69
2022/11/22 11:43:18;;;;;;;11.82;1.80;;;8.80;99.90;;;;;;4977373;28;20026;-69
2022/11/22 11:45:44;;;;;;;4.47;1.23;;;8.80;99.90;;;;;;4994723;28;20026;-69
2022/11/22 11:48:33;;;;;;;8.90;1.65;;;8.80;99.90;;;;;;4994393;28;20048;-69
2022/11/22 11:51:37;;;;;;;12.48;1.60;;;8.70;99.90;;;;;;4994699;28;20042;-69
2022/11/22 11:54:09;;;;;;;3.00;1.50;;;8.70;99.90;;;;;;4915790;29;20043;-69
2022/11/22 11:56:46;;;;;;;6.75;1.90;;;8.60;99.90;;;;;;4900207;29;20028;-69
2022/11/22 11:59:18;;;;;;;9.88;2.20;;;8.60;99.90;;;;;;4915934;29;20036;-68
2022/11/22 12:01:52;;;;;;;9.75;1.50;;;8.80;99.90;;;;;;4899678;29;20024;-68
2022/11/22 12:04:22;;;;;;;7.40;1.30;;;8.90;99.90;;;;;;4900182;29;20036;-68
2022/11/22 12:07:18;;;;;;;5.20;1.58;;;9.00;99.90;;;;;;4915448;29;20050;-68
2022/11/22 12:09:49;;;;;;;10.65;1.77;;;9.00;99.90;;;;;;4888487;29;20120;-68
2022/11/22 12:12:31;;;;;;;10.85;2.03;;;8.70;99.90;;;;;;4916038;29;20059;-68
2022/11/22 12:15:33;;;;;;;9.30;2.13;;;8.90;99.90;;;;;;4916456;29;20132;-68
2022/11/22 12:18:21;;;;;;;7.97;1.40;;;8.90;99.90;;;;;;4918243;29;20082;-68
2022/11/22 12:20:50;;;;;;;8.38;1.98;;;9.00;99.90;;;;;;4919789;29;20030;-68
2022/11/22 12:23:22;;;;;;;5.97;1.67;;;9.00;99.90;;;;;;4900567;29;20025;-68
2022/11/22 12:25:52;;;;;;;9.13;1.42;;;9.10;99.90;;;;;;4900756;29;20076;-69
2022/11/22 12:28:21;;;;;;;8.70;1.50;;;9.00;99.90;;;;;;4901192;29;20121;-68
2022/11/22 12:31:18;;;;;;;5.47;1.45;;;9.10;99.90;;;;;;4961916;28;20038;-68
2022/11/22 12:33:48;;;;;;;7.93;1.58;;;9.00;99.90;;;;;;4977136;28;20026;-68
2022/11/22 12:36:22;;;;;;;5.85;1.20;;;8.80;99.90;;;;;;4993803;28;20022;-68
2022/11/22 12:38:50;;;;;;;7.55;1.23;;;8.80;99.90;;;;;;4976367;28;20034;-68
2022/11/22 12:41:19;;;;;;;8.60;1.60;;;8.70;99.90;;;;;;4976391;28;20077;-68
2022/11/22 12:44:09;;;;;;;9.23;1.58;;;8.80;99.90;;;;;;4980012;28;20082;-68
2022/11/22 12:46:38;;;;;;;13.68;1.80;;;8.90;99.90;;;;;;4997929;28;20026;-68
2022/11/22 12:49:06;;;;;;;13.55;1.55;;;8.90;99.90;;;;;;4997949;28;20504;-68
2022/11/22 12:51:46;;;;;;;9.80;1.85;;;8.90;99.90;;;;;;4997574;28;20026;-68
2022/11/22 12:54:17;;;;;;;14.35;1.30;;;8.70;99.90;;;;;;4998021;28;20026;-68
2022/11/22 12:56:52;;;;;;;3.08;1.10;;;8.80;99.90;;;;;;4981380;28;20050;-68
2022/11/22 12:59:37;;;;;;;5.28;1.38;;;8.90;99.90;;;;;;4980468;28;20058;-68
2022/11/22 13:02:29;;;;;;;5.75;0.95;;;8.90;99.90;;;;;;4980164;28;20113;-68
2022/11/22 13:05:15;;;;;;;8.32;1.40;;;8.90;99.90;;;;;;4997706;28;20026;-68
2022/11/22 13:07:48;;;;;;;13.30;1.77;;;8.90;99.90;;;;;;4980210;28;20080;-68
2022/11/22 13:10:36;;;;;;;3.05;0.80;;;9.00;99.90;;;;;;4999292;28;20038;-68
2022/11/22 13:13:03;;;;;;;4.43;1.00;;;8.90;99.90;;;;;;4997635;28;20038;-68
2022/11/22 13:15:32;;;;;;;7.72;1.33;;;8.80;99.90;;;;;;4980055;28;20018;-68
2022/11/22 13:17:58;;;;;;;12.40;1.42;;;8.80;99.90;;;;;;4980246;28;20069;-68
2022/11/22 13:20:34;;;;;;;3.38;1.23;;;8.80;99.90;;;;;;4980019;28;20022;-69